createdAt,value
2022-10-15T00:02:49.197Z,100.00
2022-10-15T00:07:50.904Z,100.00
2022-10-15T00:12:52.520Z,100.00
2022-10-15T00:17:54.157Z,100.00
2022-10-15T00:22:55.701Z,100.00
2022-10-15T00:27:57.531Z,100.00
2022-10-15T00:33:00.773Z,100.00
2022-10-15T00:38:02.788Z,100.00
2022-10-15T00:43:09.346Z,100.00
2022-10-15T00:48:10.993Z,100.00
2022-10-15T00:53:12.659Z,100.00
2022-10-15T00:58:17.833Z,100.00
2022-10-15T01:03:20.215Z,100.00
2022-10-15T01:08:22.090Z,100.00
2022-10-15T01:13:37.915Z,100.00
2022-10-15T01:18:51.209Z,100.00
2022-10-15T01:24:14.115Z,100.00
2022-10-15T01:29:18.882Z,100.00
2022-10-15T01:34:27.806Z,100.00
2022-10-15T01:39:35.954Z,100.00
2022-10-15T01:44:44.568Z,100.00
2022-10-15T01:50:01.789Z,100.00
2022-10-15T01:55:08.968Z,100.00
2022-10-15T02:00:12.650Z,100.00
2022-10-15T02:05:20.606Z,100.00
2022-10-15T02:10:53.550Z,100.00
2022-10-15T02:16:04.277Z,100.00
2022-10-15T02:21:14.564Z,100.00
2022-10-15T02:26:17.335Z,100.00
2022-10-15T02:31:20.771Z,100.00
2022-10-15T02:36:22.604Z,100.00
2022-10-15T02:41:27.552Z,100.00
2022-10-15T02:46:29.430Z,100.00
2022-10-15T02:51:35.342Z,100.00
2022-10-15T02:56:39.333Z,100.00
2022-10-15T03:01:41.538Z,100.00
2022-10-15T03:06:44.269Z,100.00
2022-10-15T03:11:46.909Z,100.00
2022-10-15T03:16:48.772Z,100.00
2022-10-15T03:21:51.618Z,100.00
2022-10-15T03:26:53.921Z,100.00
2022-10-15T03:31:55.646Z,100.00
2022-10-15T03:36:57.511Z,100.00
2022-10-15T03:41:59.519Z,100.00
2022-10-15T03:47:08.780Z,100.00
2022-10-15T03:52:18.714Z,100.00
2022-10-15T03:57:22.073Z,100.00
2022-10-15T04:02:32.499Z,100.00
2022-10-15T04:07:34.597Z,100.00
2022-10-15T04:12:36.332Z,100.00
2022-10-15T04:17:38.400Z,100.00
2022-10-15T04:22:39.979Z,100.00
2022-10-15T04:27:43.085Z,100.00
2022-10-15T04:32:51.899Z,100.00
2022-10-15T04:37:53.629Z,100.00
2022-10-15T04:42:55.237Z,100.00
2022-10-15T04:47:57.196Z,100.00
2022-10-15T04:52:59.863Z,100.00
2022-10-15T04:58:03.312Z,100.00
2022-10-15T05:03:06.570Z,100.00
2022-10-15T05:08:30.045Z,100.00
2022-10-15T05:13:44.421Z,100.00
2022-10-15T05:18:48.507Z,100.00
2022-10-15T05:23:50.674Z,100.00
2022-10-15T05:29:12.254Z,100.00
2022-10-15T05:34:13.917Z,100.00
2022-10-15T05:39:21.756Z,100.00
2022-10-15T05:44:23.333Z,100.00
2022-10-15T05:49:24.890Z,100.00
2022-10-15T05:54:35.653Z,100.00
2022-10-15T05:59:37.257Z,100.00
2022-10-15T06:04:38.870Z,100.00
2022-10-15T06:09:40.493Z,100.00
2022-10-15T06:14:42.074Z,100.00
2022-10-15T06:19:43.646Z,100.00
2022-10-15T06:24:46.176Z,100.00
2022-10-15T06:29:47.792Z,100.00
2022-10-15T06:34:49.357Z,100.00
2022-10-15T06:39:51.315Z,100.00
2022-10-15T06:44:52.848Z,100.00
2022-10-15T06:49:54.403Z,100.00
2022-10-15T06:54:55.930Z,100.00
2022-10-15T06:59:57.480Z,100.00
2022-10-15T07:04:59.031Z,100.00
2022-10-15T07:10:00.659Z,100.00
2022-10-15T07:15:02.232Z,100.00
2022-10-15T07:20:04.210Z,100.00
2022-10-15T07:25:06.002Z,100.00
2022-10-15T07:30:08.867Z,100.00
2022-10-15T07:35:10.482Z,100.00
2022-10-15T07:40:12.382Z,100.00
2022-10-15T07:45:14.308Z,100.00
2022-10-15T07:50:16.265Z,100.00
2022-10-15T07:55:19.345Z,100.00
2022-10-15T08:00:20.964Z,100.00
2022-10-15T08:05:22.619Z,100.00
2022-10-15T08:10:24.187Z,100.00
2022-10-15T08:15:25.726Z,100.00
2022-10-15T08:20:27.265Z,100.00
2022-10-15T08:25:29.102Z,100.00
2022-10-15T08:30:30.632Z,100.00
2022-10-15T08:35:35.376Z,100.00
2022-10-15T08:40:37.224Z,100.00
2022-10-15T08:45:45.141Z,100.00
2022-10-15T08:51:02.583Z,100.00
2022-10-15T08:56:12.212Z,100.00
2022-10-15T09:01:18.591Z,100.00
2022-10-15T09:06:30.730Z,100.00
2022-10-15T09:11:51.465Z,100.00
2022-10-15T09:16:53.077Z,100.00
2022-10-15T09:21:55.463Z,100.00
2022-10-15T09:27:08.789Z,100.00
2022-10-15T09:32:34.100Z,100.00
2022-10-15T09:37:48.684Z,100.00
2022-10-15T09:42:51.941Z,100.00
2022-10-15T09:48:00.117Z,100.00
2022-10-15T09:53:28.231Z,100.00
2022-10-15T09:58:56.824Z,96.99
2022-10-15T10:04:21.383Z,95.41
2022-10-15T10:09:38.786Z,96.21
2022-10-15T10:14:46.963Z,95.08
2022-10-15T10:20:24.654Z,97.47
2022-10-15T10:25:34.337Z,98.22
2022-10-15T10:30:38.722Z,97.62
2022-10-15T10:35:50.593Z,100.00
2022-10-15T10:41:06.841Z,96.52
2022-10-15T10:46:14.786Z,95.25
2022-10-15T10:51:25.057Z,96.67
2022-10-15T10:56:35.522Z,96.34
2022-10-15T11:07:41.473Z,94.96
2022-10-15T11:12:56.484Z,91.98
2022-10-15T11:18:27.003Z,91.29
2022-10-15T11:24:05.568Z,90.63
2022-10-15T11:29:10.865Z,90.87
2022-10-15T11:34:47.169Z,90.65
2022-10-15T11:40:26.230Z,85.87
2022-10-15T11:45:54.005Z,83.45
2022-10-15T11:51:06.388Z,86.91
2022-10-15T11:56:26.704Z,85.52
2022-10-15T12:01:41.951Z,82.85
2022-10-15T12:06:50.122Z,80.76
2022-10-15T12:11:57.582Z,77.33
2022-10-15T12:22:39.342Z,76.10
2022-10-15T12:27:41.581Z,77.99
2022-10-15T12:32:48.848Z,78.42
2022-10-15T12:37:51.152Z,78.81
2022-10-15T12:43:04.049Z,79.05
2022-10-15T12:48:07.930Z,79.56
2022-10-15T12:53:28.723Z,79.86
2022-10-15T12:58:39.904Z,81.01
2022-10-15T13:03:50.690Z,77.50
2022-10-15T13:08:58.819Z,78.22
2022-10-15T13:14:03.585Z,77.14
2022-10-15T13:19:05.223Z,76.65
2022-10-15T13:24:11.891Z,74.40
2022-10-15T13:29:22.415Z,73.91
2022-10-15T13:34:33.109Z,76.93
2022-10-15T13:39:40.066Z,73.87
2022-10-15T13:44:42.771Z,73.85
2022-10-15T13:49:44.382Z,73.76
2022-10-15T13:54:47.042Z,75.40
2022-10-15T13:59:48.680Z,74.74
2022-10-15T14:04:50.228Z,75.04
2022-10-15T14:09:52.387Z,75.09
2022-10-15T14:14:53.948Z,76.00
2022-10-15T14:20:25.256Z,77.03
2022-10-15T14:25:24.882Z,77.22
2022-10-15T14:30:36.691Z,77.73
2022-10-15T14:35:38.778Z,77.28
2022-10-15T14:40:40.574Z,78.96
2022-10-15T14:45:50.905Z,77.12
2022-10-15T14:50:53.335Z,77.27
2022-10-15T14:56:02.105Z,76.57
2022-10-15T15:01:07.149Z,78.02
2022-10-15T15:06:09.767Z,80.82
2022-10-15T15:11:15.107Z,82.33
2022-10-15T15:16:18.144Z,83.06
2022-10-15T15:21:22.343Z,84.60
2022-10-15T15:26:24.589Z,84.88
2022-10-15T15:31:26.166Z,86.95
2022-10-15T15:36:27.709Z,88.53
2022-10-15T15:41:29.356Z,89.93
2022-10-15T15:46:31.251Z,90.23
2022-10-15T15:51:32.900Z,92.44
2022-10-15T15:56:34.978Z,92.41
2022-10-15T16:01:36.760Z,94.73
2022-10-15T16:06:39.578Z,95.60
2022-10-15T16:11:41.122Z,96.02
2022-10-15T16:16:42.952Z,94.16
2022-10-15T16:21:44.596Z,94.25
2022-10-15T16:26:46.307Z,95.42
2022-10-15T16:31:47.909Z,96.51
2022-10-15T16:36:49.608Z,97.94
2022-10-15T16:41:51.212Z,99.66
2022-10-15T16:46:52.778Z,100.00
2022-10-15T16:51:54.456Z,100.00
2022-10-15T16:56:56.044Z,100.00
2022-10-15T17:01:58.054Z,100.00
2022-10-15T17:06:59.592Z,100.00
2022-10-15T17:12:01.118Z,100.00
2022-10-15T17:17:02.790Z,100.00
2022-10-15T17:22:04.366Z,100.00
2022-10-15T17:27:06.024Z,100.00
2022-10-15T17:32:07.673Z,100.00
2022-10-15T17:37:09.585Z,100.00
2022-10-15T17:42:13.160Z,100.00
2022-10-15T17:47:14.753Z,100.00
2022-10-15T17:52:16.375Z,100.00
2022-10-15T17:57:17.921Z,100.00
2022-10-15T18:02:19.695Z,100.00
2022-10-15T18:07:23.127Z,100.00
2022-10-15T18:12:24.898Z,100.00
2022-10-15T18:17:26.753Z,100.00
2022-10-15T18:22:29.992Z,100.00
2022-10-15T18:27:31.609Z,100.00
2022-10-15T18:37:40.824Z,100.00
2022-10-15T18:42:46.296Z,100.00
2022-10-15T18:47:54.567Z,100.00
2022-10-15T18:52:56.077Z,100.00
2022-10-15T18:57:57.714Z,100.00
2022-10-15T19:02:59.828Z,100.00
2022-10-15T19:08:03.998Z,100.00
2022-10-15T19:13:05.580Z,100.00
2022-10-15T19:18:11.282Z,100.00
2022-10-15T19:23:13.098Z,100.00
2022-10-15T19:28:15.093Z,100.00
2022-10-15T19:33:18.585Z,100.00
2022-10-15T19:38:20.418Z,100.00
2022-10-15T19:43:23.756Z,100.00
2022-10-15T19:48:25.387Z,100.00
2022-10-15T19:53:26.946Z,100.00
2022-10-15T19:58:29.387Z,100.00
2022-10-15T20:03:31.087Z,100.00
2022-10-15T20:08:37.071Z,100.00
2022-10-15T20:13:38.812Z,100.00
2022-10-15T20:18:41.154Z,100.00
2022-10-15T20:23:44.334Z,100.00
2022-10-15T20:28:46.732Z,100.00
2022-10-15T20:33:48.421Z,100.00
2022-10-15T20:38:50.049Z,100.00
2022-10-15T20:43:54.896Z,100.00
2022-10-15T20:48:58.187Z,100.00
2022-10-15T20:53:59.924Z,100.00
2022-10-15T20:59:03.935Z,100.00
2022-10-15T21:04:06.290Z,100.00
2022-10-15T21:09:08.126Z,100.00
2022-10-15T21:14:11.714Z,100.00
2022-10-15T21:19:13.728Z,100.00
2022-10-15T21:24:15.225Z,100.00
2022-10-15T21:29:17.454Z,100.00
2022-10-15T21:34:23.134Z,100.00
2022-10-15T21:39:24.707Z,100.00
2022-10-15T21:44:26.287Z,100.00
2022-10-15T21:49:27.845Z,100.00
2022-10-15T21:54:29.566Z,100.00
2022-10-15T21:59:31.146Z,100.00
2022-10-15T22:04:34.807Z,100.00
2022-10-15T22:09:36.638Z,100.00
2022-10-15T22:14:38.261Z,100.00
2022-10-15T22:19:39.765Z,100.00
2022-10-15T22:24:41.447Z,100.00
2022-10-15T22:29:44.113Z,100.00
2022-10-15T22:34:45.713Z,100.00
2022-10-15T22:39:47.291Z,100.00
2022-10-15T22:44:48.819Z,100.00
2022-10-15T22:49:50.448Z,100.00
2022-10-15T22:54:52.081Z,100.00
2022-10-15T22:59:55.955Z,100.00
2022-10-15T23:05:00.283Z,100.00
2022-10-15T23:10:01.837Z,100.00
2022-10-15T23:15:04.339Z,100.00
2022-10-15T23:20:06.345Z,100.00
2022-10-15T23:25:08.266Z,100.00
2022-10-15T23:30:23.779Z,100.00
2022-10-15T23:35:26.135Z,100.00
2022-10-15T23:40:27.817Z,100.00
2022-10-15T23:45:29.289Z,100.00
2022-10-15T23:50:35.291Z,100.00
2022-10-15T23:55:40.725Z,100.00
